Time;durP1;ratioP1;P1;durP2;ratioP2;P2;SDS_P1;SDS_P2;PMS_P1;PMS_P2;Temp;Humidity;BMP_temperature;BMP_pressure;BME280_temperature;BME280_humidity;BME280_pressure;Samples;Min_cycle;Max_cycle;Signal;HPM_P1;HPM_P2
2021/12/18 00:02:12;;;;;;;5.30;4.50;;;;;;;4.18;69.40;99899.69;5014822;28;20026;-77
2021/12/18 00:04:38;;;;;;;4.63;4.00;;;;;;;4.07;69.52;99883.13;5014743;28;20034;-76
2021/12/18 00:07:03;;;;;;;3.97;3.50;;;;;;;4.34;69.43;99932.25;5014954;28;20560;-77
2021/12/18 00:09:31;;;;;;;4.80;3.77;;;;;;;4.51;69.41;99958.78;5015207;28;20026;-76
2021/12/18 00:11:57;;;;;;;4.20;3.40;;;;;;;3.74;69.28;99855.41;5014985;28;20105;-77
2021/12/18 00:14:23;;;;;;;5.40;4.20;;;;;;;4.34;69.85;99947.94;5014837;28;20034;-77
2021/12/18 00:16:48;;;;;;;3.97;3.57;;;;;;;4.40;69.86;99963.09;5015049;28;20026;-77
2021/12/18 00:19:14;;;;;;;5.27;4.23;;;;;;;4.33;69.64;99955.91;5015092;28;20041;-77
2021/12/18 00:21:40;;;;;;;5.90;4.50;;;;;;;4.15;70.22;99919.06;5013666;28;20061;-77
2021/12/18 00:24:07;;;;;;;5.83;4.50;;;;;;;4.03;69.72;99889.56;5014606;28;20034;-77
2021/12/18 00:26:33;;;;;;;6.27;4.60;;;;;;;4.11;69.79;99888.91;5014423;28;20030;-76
2021/12/18 00:28:58;;;;;;;6.57;5.20;;;;;;;4.53;69.57;99955.09;5014934;28;20100;-77
2021/12/18 00:31:24;;;;;;;6.93;5.40;;;;;;;4.13;69.57;99884.38;5014780;28;20022;-77
2021/12/18 00:33:49;;;;;;;6.43;5.10;;;;;;;3.92;69.54;99847.81;5013411;28;20396;-77
2021/12/18 00:36:14;;;;;;;5.97;4.33;;;;;;;4.32;69.68;99908.00;5013134;28;20057;-77
2021/12/18 00:38:41;;;;;;;4.87;4.37;;;;;;;4.01;69.81;99882.81;5014715;28;20033;-77
2021/12/18 00:43:37;;;;;;;6.03;4.97;;;;;;;4.31;69.63;99895.06;5014611;28;20101;-77
2021/12/18 00:46:04;;;;;;;5.70;4.70;;;;;;;4.49;69.18;99918.88;5014769;28;20037;-77
2021/12/18 00:48:30;;;;;;;6.23;5.20;;;;;;;4.13;69.25;99850.41;5014265;28;20018;-76
2021/12/18 00:50:55;;;;;;;6.30;4.90;;;;;;;4.23;69.27;99890.50;5014384;28;20032;-77
2021/12/18 00:53:21;;;;;;;5.40;4.73;;;;;;;4.50;69.17;99923.13;5014460;28;20026;-77
2021/12/18 00:55:48;;;;;;;6.97;5.47;;;;;;;4.02;69.25;99840.88;5014486;28;20487;-77
2021/12/18 00:58:13;;;;;;;6.43;5.20;;;;;;;4.56;69.58;99922.63;5014563;28;20065;-77
2021/12/18 01:00:41;;;;;;;7.00;4.83;;;;;;;4.16;69.23;99863.22;5013703;28;20304;-76
2021/12/18 01:03:15;;;;;;;5.43;4.60;;;;;;;4.21;69.46;99870.69;5014667;28;20570;-75
2021/12/18 01:05:41;;;;;;;4.77;4.17;;;;;;;4.67;69.40;99930.38;5014707;28;20022;-77
2021/12/18 01:08:07;;;;;;;6.87;5.30;;;;;;;4.21;69.44;99865.44;5014582;28;20032;-76
2021/12/18 01:10:55;;;;;;;6.00;4.63;;;;;;;4.63;69.46;99927.19;5029339;28;20025;-77
2021/12/18 01:13:25;;;;;;;5.73;5.10;;;;;;;4.62;69.50;99928.16;5013576;28;20029;-77
2021/12/18 01:15:54;;;;;;;6.13;5.20;;;;;;;4.66;69.66;99931.34;5013710;28;20418;-77
2021/12/18 01:23:48;;;;;;;6.70;4.80;;;;;;;4.56;69.74;99922.63;5013817;28;20092;-76
2021/12/18 01:26:14;;;;;;;5.10;4.30;;;;;;;4.41;69.92;99895.94;5013703;28;20030;-77
2021/12/18 01:28:39;;;;;;;4.73;4.23;;;;;;;4.64;69.13;99922.78;5012397;28;20018;-74
2021/12/18 01:31:05;;;;;;;4.67;4.13;;;;;;;4.21;69.42;99850.59;5013495;28;20030;-76
2021/12/18 01:33:32;;;;;;;5.60;4.50;;;;;;;4.54;69.21;99903.63;5013342;28;20565;-76
2021/12/18 01:36:00;;;;;;;6.07;4.23;;;;;;;4.22;69.24;99854.88;5012833;28;20057;-77
2021/12/18 01:38:28;;;;;;;6.67;5.53;;;;;;;4.34;69.30;99863.44;5013658;28;20561;-77
2021/12/18 01:40:55;;;;;;;5.93;4.77;;;;;;;4.32;69.59;99866.19;5013298;28;20096;-77
2021/12/18 01:44:20;;;;;;;4.57;4.10;;;;;;;4.37;69.55;99873.66;5013540;28;20030;-76
2021/12/18 01:54:13;;;;;;;4.53;3.97;;;;;;;4.39;69.50;99893.47;5013112;28;20037;-77
2021/12/18 01:56:38;;;;;;;3.90;3.60;;;;;;;4.58;69.52;99921.53;5013237;28;20491;-76
2021/12/18 01:59:04;;;;;;;4.57;4.13;;;;;;;3.94;69.82;99856.34;5011295;28;20097;-76
2021/12/18 02:01:30;;;;;;;5.13;4.63;;;;;;;4.02;69.88;99855.72;5012896;28;20030;-76
2021/12/18 02:03:55;;;;;;;4.93;4.13;;;;;;;4.07;70.28;99869.22;5011763;28;20114;-78
2021/12/18 02:06:22;;;;;;;4.23;3.83;;;;;;;4.44;69.82;99929.69;5013138;28;20057;-77
2021/12/18 02:08:47;;;;;;;5.37;4.10;;;;;;;4.02;70.26;99858.34;5013063;28;20030;-76
2021/12/18 02:22:02;;;;;;;4.60;4.20;;;;;;;4.46;70.00;99933.84;5012314;28;20033;-77
2021/12/18 02:24:30;;;;;;;6.67;5.17;;;;;;;3.57;70.27;99816.78;5012541;28;20041;-77
2021/12/18 02:26:57;;;;;;;5.93;5.30;;;;;;;4.17;70.82;99922.38;5012517;28;20026;-77
2021/12/18 02:29:23;;;;;;;6.13;5.53;;;;;;;3.96;70.96;99892.81;5012430;28;20088;-77
2021/12/18 02:31:48;;;;;;;6.63;5.63;;;;;;;3.81;70.29;99850.50;5012518;28;20029;-77
2021/12/18 02:34:18;;;;;;;6.47;5.77;;;;;;;4.31;70.64;99937.72;5012574;28;20025;-76
2021/12/18 02:36:47;;;;;;;6.40;4.80;;;;;;;4.06;70.30;99899.75;5027325;28;20072;-77
2021/12/18 02:42:08;;;;;;;6.30;5.37;;;;;;;4.26;70.52;99926.00;5011999;28;20049;-76
2021/12/18 02:44:41;;;;;;;5.57;4.93;;;;;;;4.25;70.16;99906.03;5012043;28;20148;-77
2021/12/18 02:47:10;;;;;;;5.80;5.27;;;;;;;4.24;70.35;99904.38;5012099;28;20053;-77
2021/12/18 02:49:36;;;;;;;4.70;4.23;;;;;;;4.29;69.90;99913.50;5012108;28;20049;-77
2021/12/18 02:52:02;;;;;;;5.27;4.77;;;;;;;4.44;70.09;99933.13;5012206;28;20037;-77
2021/12/18 02:54:28;;;;;;;5.83;4.43;;;;;;;4.17;69.97;99900.63;5012157;28;20030;-77
2021/12/18 02:56:53;;;;;;;5.77;5.07;;;;;;;4.35;70.42;99917.38;5012276;28;20103;-77
2021/12/18 02:59:19;;;;;;;5.67;4.50;;;;;;;3.94;70.21;99858.97;5012118;28;20077;-77
2021/12/18 03:01:45;;;;;;;5.17;4.53;;;;;;;4.33;70.30;99914.06;5012677;28;20021;-77
2021/12/18 03:04:25;;;;;;;6.70;5.37;;;;;;;4.39;70.38;99930.06;5012509;28;20033;-77
2021/12/18 03:06:55;;;;;;;4.57;4.17;;;;;;;4.47;70.31;99934.69;5012156;28;20034;-77
2021/12/18 03:25:28;;;;;;;5.07;4.50;;;;;;;4.62;69.92;99949.06;5016083;28;20116;-78
2021/12/18 03:27:51;;;;;;;5.73;3.83;;;;;;;4.60;69.78;99955.38;5016170;28;20037;-77
2021/12/18 03:30:17;;;;;;;4.97;4.47;;;;;;;4.63;69.54;99955.97;5014650;28;20026;-77
2021/12/18 03:32:43;;;;;;;4.77;4.27;;;;;;;4.61;69.83;99963.09;5015331;28;20403;-76
2021/12/18 03:35:09;;;;;;;4.90;4.30;;;;;;;4.26;69.84;99905.91;5015337;28;20034;-77
2021/12/18 03:37:35;;;;;;;5.93;4.43;;;;;;;4.48;69.73;99938.94;5015398;28;20042;-77
2021/12/18 03:40:05;;;;;;;5.17;4.40;;;;;;;4.26;69.76;99905.91;5015022;28;20422;-78
2021/12/18 03:42:30;;;;;;;5.87;5.17;;;;;;;4.33;69.81;99935.81;5015064;28;20041;-77
2021/12/18 03:44:55;;;;;;;8.00;6.30;;;;;;;4.17;69.67;99917.16;5015265;28;20022;-78
2021/12/18 03:47:21;;;;;;;6.77;5.93;;;;;;;3.93;69.96;99880.81;5014986;28;20033;-77
2021/12/18 03:49:46;;;;;;;10.23;7.77;;;;;;;4.03;69.98;99901.78;5015029;28;20037;-77
2021/12/18 03:52:12;;;;;;;8.17;6.63;;;;;;;4.44;69.88;99992.44;5015234;28;20030;-77
2021/12/18 03:54:37;;;;;;;7.30;6.03;;;;;;;4.24;70.05;99969.72;5014965;28;20100;-77
2021/12/18 03:57:03;;;;;;;7.30;6.53;;;;;;;3.87;69.89;99910.06;5013703;28;20022;-77
2021/12/18 03:59:28;;;;;;;8.07;6.60;;;;;;;4.34;70.01;100005.44;5014853;28;20029;-77
2021/12/18 04:01:54;;;;;;;6.90;5.97;;;;;;;3.81;70.08;99913.19;5015001;28;20029;-76
2021/12/18 04:04:19;;;;;;;7.87;7.03;;;;;;;3.69;70.01;99924.59;5014856;28;20418;-77
2021/12/18 04:06:45;;;;;;;6.83;6.10;;;;;;;3.94;70.00;99953.00;5014977;28;20026;-78
2021/12/18 04:09:11;;;;;;;7.77;6.40;;;;;;;3.76;70.35;99929.22;5015131;28;20033;-77
2021/12/18 04:11:41;;;;;;;7.20;6.50;;;;;;;3.92;70.27;99961.94;5014306;28;20029;-77
2021/12/18 04:14:07;;;;;;;7.43;5.97;;;;;;;4.19;70.46;100013.72;5015414;28;20100;-77
2021/12/18 04:16:33;;;;;;;7.80;6.77;;;;;;;3.65;69.90;99925.81;5015072;28;20506;-76
2021/12/18 04:19:01;;;;;;;7.13;6.17;;;;;;;3.67;70.38;99950.00;5014560;28;20403;-76
2021/12/18 04:21:27;;;;;;;7.27;5.90;;;;;;;4.15;70.30;100019.19;5014649;28;20482;-76
2021/12/18 04:23:52;;;;;;;6.67;5.80;;;;;;;4.14;70.09;100014.91;5014395;28;20036;-77
2021/12/18 04:26:17;;;;;;;7.57;6.20;;;;;;;4.08;69.95;100001.53;5014475;28;20030;-77
2021/12/18 04:28:43;;;;;;;6.93;5.20;;;;;;;3.59;70.33;99928.91;5013205;28;20022;-77
2021/12/18 04:31:08;;;;;;;7.47;5.90;;;;;;;4.00;70.20;99991.69;5014514;28;20022;-77
2021/12/18 04:33:34;;;;;;;5.93;4.60;;;;;;;3.82;70.52;99956.63;5013670;28;20495;-77
2021/12/18 04:35:59;;;;;;;5.00;4.50;;;;;;;3.78;70.21;99947.38;5013728;28;20526;-77
2021/12/18 04:38:25;;;;;;;4.37;3.97;;;;;;;4.11;70.26;99996.88;5012811;28;20030;-77
2021/12/18 04:40:51;;;;;;;4.73;4.00;;;;;;;4.06;70.05;99991.19;5014068;28;20025;-77
2021/12/18 04:43:16;;;;;;;5.90;4.00;;;;;;;4.22;70.00;100009.06;5012752;28;20037;-76
2021/12/18 04:45:42;;;;;;;5.17;4.10;;;;;;;3.86;70.11;99967.66;5014018;28;20021;-77
2021/12/18 04:48:07;;;;;;;5.87;4.80;;;;;;;4.26;70.11;100020.91;5012757;28;20598;-76
2021/12/18 04:50:33;;;;;;;4.33;3.93;;;;;;;4.24;70.13;100019.38;5014127;28;20033;-76
2021/12/18 04:52:58;;;;;;;6.23;4.83;;;;;;;4.14;70.38;100003.63;5012666;28;20029;-77
2021/12/18 04:55:24;;;;;;;4.63;4.13;;;;;;;3.80;69.91;99969.81;5013762;28;20033;-77
2021/12/18 04:57:51;;;;;;;5.20;4.50;;;;;;;4.21;70.33;100022.25;5013783;28;20079;-76
2021/12/18 05:00:27;;;;;;;5.53;4.33;;;;;;;4.15;70.28;100007.91;5013872;28;20030;-77
2021/12/18 05:02:54;;;;;;;4.63;4.13;;;;;;;4.15;69.70;100006.13;5013569;28;20033;-77
2021/12/18 05:05:19;;;;;;;5.43;4.87;;;;;;;3.82;70.01;99952.22;5013809;28;20053;-76
2021/12/18 05:07:45;;;;;;;5.30;4.80;;;;;;;3.83;70.09;99968.72;5028883;28;20487;-77
2021/12/18 05:10:12;;;;;;;5.87;5.27;;;;;;;3.85;69.95;99968.59;5013923;28;20026;-77
2021/12/18 05:12:37;;;;;;;6.63;6.03;;;;;;;4.15;70.28;100013.13;5013704;28;20029;-78
2021/12/18 05:15:04;;;;;;;7.17;6.47;;;;;;;3.97;70.25;99988.50;5013591;28;20040;-77
2021/12/18 05:17:30;;;;;;;6.83;5.87;;;;;;;3.92;70.07;99983.66;5013758;28;20037;-76
2021/12/18 05:19:55;;;;;;;8.53;5.70;;;;;;;4.35;70.02;100048.09;5012704;28;20033;-77
2021/12/18 05:22:21;;;;;;;7.13;5.67;;;;;;;3.86;70.18;99973.72;5012870;28;20022;-76
2021/12/18 05:24:46;;;;;;;7.63;6.60;;;;;;;3.80;69.85;99956.75;5013938;28;20430;-76
2021/12/18 05:27:11;;;;;;;6.57;5.17;;;;;;;3.89;70.13;99980.47;5013556;28;20037;-78
2021/12/18 05:29:37;;;;;;;7.40;6.60;;;;;;;3.98;69.96;99993.59;5013742;28;20018;-78
2021/12/18 05:32:02;;;;;;;10.23;8.20;;;;;;;4.41;70.05;100058.88;5013887;28;20033;-77
2021/12/18 05:34:33;;;;;;;16.93;13.37;;;;;;;4.28;70.00;100046.94;5013653;28;20029;-77
2021/12/18 05:39:26;;;;;;;22.30;18.07;;;;;;;4.10;70.14;100023.97;5014147;28;20037;-76
2021/12/18 05:41:53;;;;;;;20.83;16.20;;;;;;;4.07;70.12;100011.16;5014248;28;20091;-77
2021/12/18 05:44:20;;;;;;;23.63;17.03;;;;;;;4.35;70.05;100066.38;5013993;28;20036;-77
2021/12/18 05:46:46;;;;;;;24.33;17.83;;;;;;;4.34;70.38;100055.09;5013685;28;20026;-77
2021/12/18 05:49:12;;;;;;;20.03;15.40;;;;;;;4.39;69.95;100073.84;5013352;28;20028;-76
2021/12/18 05:51:39;;;;;;;24.70;18.30;;;;;;;4.29;70.10;100049.41;5013141;28;20030;-77
2021/12/18 05:54:05;;;;;;;23.40;16.77;;;;;;;4.45;70.12;100070.72;5012011;28;20033;-77
2021/12/18 05:56:31;;;;;;;23.37;17.53;;;;;;;4.44;69.97;100073.47;5011881;28;20477;-77
2021/12/18 05:58:57;;;;;;;22.83;18.03;;;;;;;4.46;70.02;100075.03;5011930;28;20034;-77
2021/12/18 06:01:23;;;;;;;20.30;15.73;;;;;;;4.49;70.15;100078.34;5013174;28;20446;-77
2021/12/18 06:03:49;;;;;;;17.83;14.23;;;;;;;3.74;70.22;99951.19;5013033;28;20057;-77
2021/12/18 06:06:15;;;;;;;19.97;16.10;;;;;;;4.45;70.11;100083.81;5012933;28;20112;-78
2021/12/18 06:08:42;;;;;;;20.50;15.50;;;;;;;4.19;70.12;100035.44;5013173;28;20427;-77
2021/12/18 06:11:13;;;;;;;26.83;20.23;;;;;;;4.45;70.14;100072.53;5013154;28;20458;-76
2021/12/18 06:13:39;;;;;;;19.80;13.68;;;;;;;4.43;70.30;100077.88;5012520;28;20025;-77
2021/12/18 06:16:06;;;;;;;16.40;12.53;;;;;;;4.49;69.92;100081.81;5012694;28;20018;-76
2021/12/18 06:18:36;;;;;;;17.13;12.43;;;;;;;4.52;70.20;100085.94;5012680;28;20030;-77
2021/12/18 06:21:02;;;;;;;22.87;16.63;;;;;;;4.23;69.92;100036.03;5011393;28;20034;-76
2021/12/18 06:23:28;;;;;;;22.00;17.70;;;;;;;4.53;69.79;100087.59;5011867;28;20411;-76
2021/12/18 06:25:54;;;;;;;19.37;15.40;;;;;;;4.27;70.10;100050.50;5012974;28;20052;-76
2021/12/18 06:28:19;;;;;;;16.37;13.10;;;;;;;4.48;69.81;100101.06;5012525;28;20026;-77
2021/12/18 06:30:45;;;;;;;15.97;12.73;;;;;;;3.70;69.98;99966.25;5012675;28;20118;-77
2021/12/18 06:33:10;;;;;;;15.83;11.50;;;;;;;4.12;70.12;100042.97;5008999;28;20030;-77
2021/12/18 06:35:35;;;;;;;14.07;10.90;;;;;;;4.41;70.17;100094.63;5010994;28;20049;-77
2021/12/18 06:38:01;;;;;;;15.80;12.17;;;;;;;4.16;70.16;100043.53;4996791;28;20072;-77
2021/12/18 06:40:26;;;;;;;15.73;12.53;;;;;;;4.20;69.87;100044.13;5025015;28;20049;-77
2021/12/18 06:42:52;;;;;;;19.83;14.80;;;;;;;4.38;70.19;100089.66;5012517;28;20018;-77
2021/12/18 06:45:17;;;;;;;20.27;15.00;;;;;;;3.83;70.07;100000.91;5000685;28;20089;-77
2021/12/18 06:47:43;;;;;;;23.53;17.57;;;;;;;4.13;69.86;100038.56;5011818;28;20030;-77
2021/12/18 06:50:09;;;;;;;21.73;15.53;;;;;;;4.58;69.82;100109.81;5013071;28;20107;-78
2021/12/18 06:52:34;;;;;;;19.63;14.10;;;;;;;4.55;69.96;100102.22;5010962;28;20066;-77
2021/12/18 06:55:00;;;;;;;24.10;17.13;;;;;;;4.38;69.58;100077.41;5012296;28;20115;-77
2021/12/18 06:57:26;;;;;;;29.43;20.53;;;;;;;4.70;69.40;100134.13;5012599;28;20438;-77
2021/12/18 06:59:51;;;;;;;20.87;14.53;;;;;;;3.70;69.61;99965.44;5011978;28;20026;-78
2021/12/18 07:02:17;;;;;;;13.17;10.70;;;;;;;4.69;69.45;100135.91;5000837;28;20507;-77
2021/12/18 07:04:43;;;;;;;14.40;10.33;;;;;;;4.47;69.28;100102.84;5005655;28;20032;-77
2021/12/18 07:07:08;;;;;;;13.23;9.77;;;;;;;4.17;69.30;100063.50;4995264;28;20034;-77
2021/12/18 07:09:34;;;;;;;11.47;8.53;;;;;;;4.60;69.48;100130.59;4992167;28;20082;-77
2021/12/18 07:11:59;;;;;;;14.00;9.40;;;;;;;4.62;69.45;100133.91;5000040;28;20036;-77
2021/12/18 07:14:25;;;;;;;11.57;8.67;;;;;;;4.44;69.53;100097.84;5006874;28;20029;-77
2021/12/18 07:16:50;;;;;;;13.23;9.50;;;;;;;4.34;69.45;100089.09;5022905;28;20026;-77
2021/12/18 07:19:16;;;;;;;12.80;10.07;;;;;;;4.61;69.68;100137.50;5009739;28;20490;-76
2021/12/18 07:21:41;;;;;;;10.80;8.57;;;;;;;4.24;69.46;100066.44;4994392;28;20479;-78
2021/12/18 07:24:07;;;;;;;13.53;10.53;;;;;;;4.72;69.32;100158.38;5005180;28;20037;-77
2021/12/18 07:26:33;;;;;;;12.47;8.97;;;;;;;4.60;69.51;100144.50;5005885;28;20041;-77
2021/12/18 07:28:59;;;;;;;11.40;9.43;;;;;;;4.14;69.47;100071.56;4999753;28;20525;-77
2021/12/18 07:31:25;;;;;;;13.83;9.80;;;;;;;4.76;69.57;100168.47;5003180;28;20506;-77
2021/12/18 07:33:51;;;;;;;13.27;10.33;;;;;;;4.10;69.30;100057.94;4999974;28;20026;-77
2021/12/18 07:36:17;;;;;;;16.70;12.00;;;;;;;4.37;69.59;100112.38;4992290;28;20061;-77
2021/12/18 07:38:43;;;;;;;16.33;11.33;;;;;;;4.16;69.28;100087.97;4991663;28;20427;-77
2021/12/18 07:41:09;;;;;;;16.07;10.93;;;;;;;4.77;69.68;100179.75;5007773;28;20546;-77
2021/12/18 07:43:35;;;;;;;15.03;10.40;;;;;;;4.37;69.36;100116.75;5001959;28;20065;-77
2021/12/18 07:46:00;;;;;;;18.83;13.50;;;;;;;4.56;69.35;100155.34;4992013;28;20470;-76
2021/12/18 07:48:25;;;;;;;20.37;14.60;;;;;;;4.25;69.25;100104.69;4996473;28;20113;-76
2021/12/18 07:50:51;;;;;;;20.13;15.63;;;;;;;4.40;69.31;100150.50;4994517;28;20400;-78
2021/12/18 07:53:17;;;;;;;20.93;16.00;;;;;;;4.38;69.30;100148.00;4995789;28;20041;-77
2021/12/18 07:55:42;;;;;;;18.87;13.57;;;;;;;4.71;69.59;100204.63;4997907;28;20054;-77
2021/12/18 07:58:08;;;;;;;20.23;15.07;;;;;;;4.40;69.27;100168.78;5002792;28;20454;-77
2021/12/18 08:00:33;;;;;;;18.63;14.73;;;;;;;4.14;69.57;100116.84;5003446;28;20034;-77
2021/12/18 08:02:59;;;;;;;19.67;14.27;;;;;;;4.32;69.67;100148.50;4997913;28;20503;-77
2021/12/18 08:05:24;;;;;;;16.23;13.63;;;;;;;4.36;69.58;100147.31;4999943;28;20030;-77
2021/12/18 08:07:50;;;;;;;18.87;13.70;;;;;;;4.20;69.49;100123.34;5005036;28;20030;-78
2021/12/18 08:10:16;;;;;;;20.10;13.90;;;;;;;4.32;69.52;100139.81;5004061;28;20038;-77
2021/12/18 08:12:42;;;;;;;19.67;14.83;;;;;;;4.55;69.21;100172.81;5001656;28;20025;-77
2021/12/18 08:15:07;;;;;;;18.97;13.93;;;;;;;4.35;69.36;100127.34;5003011;28;20466;-77
2021/12/18 08:17:34;;;;;;;18.23;13.03;;;;;;;5.04;69.27;100245.53;5007080;28;20037;-75
2021/12/18 08:20:00;;;;;;;17.87;14.07;;;;;;;4.65;69.08;100160.66;4997572;28;20041;-76
2021/12/18 08:22:25;;;;;;;16.80;13.27;;;;;;;4.77;68.92;100175.34;5013743;28;20018;-78
2021/12/18 08:24:51;;;;;;;15.80;12.00;;;;;;;4.32;68.86;100096.22;5013807;28;20021;-76
2021/12/18 08:27:16;;;;;;;14.43;10.97;;;;;;;4.83;69.24;100187.09;5008532;28;20026;-77
2021/12/18 08:29:42;;;;;;;14.13;11.07;;;;;;;4.95;68.87;100196.56;5014461;28;20037;-76
2021/12/18 08:32:07;;;;;;;15.80;12.03;;;;;;;5.21;68.83;100238.09;5016045;28;20033;-77
2021/12/18 08:34:33;;;;;;;15.53;11.30;;;;;;;5.07;68.94;100208.63;5003815;28;20033;-77
2021/12/18 08:36:58;;;;;;;19.33;14.23;;;;;;;5.27;68.82;100235.81;5007536;28;20049;-78
2021/12/18 08:39:24;;;;;;;32.70;24.67;;;;;;;5.05;68.81;100196.63;5001192;28;20058;-77
2021/12/18 08:41:49;;;;;;;24.97;17.60;;;;;;;4.69;69.11;100140.31;5010467;28;20033;-77
2021/12/18 08:44:15;;;;;;;27.53;18.67;;;;;;;5.20;68.86;100212.84;5012406;28;20088;-77
2021/12/18 08:46:41;;;;;;;22.37;15.40;;;;;;;4.81;68.73;100167.25;5014154;28;20047;-76
2021/12/18 08:49:07;;;;;;;27.63;17.67;;;;;;;5.13;68.74;100209.06;5014591;28;20446;-77
2021/12/18 08:51:32;;;;;;;20.00;14.00;;;;;;;4.84;68.47;100154.75;5014960;28;20080;-78
2021/12/18 08:53:58;;;;;;;19.70;15.40;;;;;;;5.29;68.53;100233.88;5013942;28;20022;-77
2021/12/18 08:56:24;;;;;;;18.63;13.70;;;;;;;5.03;68.76;100185.44;5004255;28;20022;-77
2021/12/18 08:58:53;;;;;;;18.47;11.50;;;;;;;4.93;68.60;100159.22;5008528;28;20503;-77
2021/12/18 09:01:21;;;;;;;16.57;12.03;;;;;;;5.32;69.01;100224.94;5010859;28;20030;-77
2021/12/18 09:03:47;;;;;;;15.70;12.00;;;;;;;5.24;68.86;100209.88;5006941;28;20049;-77
2021/12/18 09:06:13;;;;;;;15.73;12.30;;;;;;;5.28;68.88;100210.44;5006279;28;20057;-77
2021/12/18 09:08:38;;;;;;;14.87;11.10;;;;;;;4.78;69.09;100131.72;5013348;28;20072;-77
2021/12/18 09:11:04;;;;;;;19.10;12.77;;;;;;;5.34;68.89;100223.03;5001479;28;20056;-77
2021/12/18 09:13:29;;;;;;;14.63;11.40;;;;;;;5.09;69.25;100174.47;5012655;28;20034;-77
2021/12/18 09:15:55;;;;;;;15.97;11.57;;;;;;;5.18;69.40;100192.03;5002649;28;20031;-78
2021/12/18 09:18:20;;;;;;;13.67;10.43;;;;;;;5.13;69.20;100182.91;4994692;28;20030;-77
2021/12/18 09:20:46;;;;;;;15.00;11.80;;;;;;;5.46;69.17;100208.09;5003105;28;20031;-78
2021/12/18 09:23:15;;;;;;;19.37;13.97;;;;;;;5.33;69.21;100174.25;5005834;28;20034;-81
2021/12/18 09:25:41;;;;;;;13.03;9.47;;;;;;;5.28;68.77;100152.84;5005080;28;20030;-81
2021/12/18 09:28:06;;;;;;;14.83;10.43;;;;;;;5.37;69.04;100170.41;5004841;28;20105;-80
2021/12/18 09:30:32;;;;;;;13.87;10.37;;;;;;;5.55;68.92;100192.41;5005021;28;20113;-82
2021/12/18 09:32:58;;;;;;;13.50;10.60;;;;;;;5.77;68.94;100212.38;4998052;28;20038;-81
2021/12/18 09:35:23;;;;;;;14.87;10.40;;;;;;;5.48;68.84;100179.97;4997368;28;20054;-82
2021/12/18 09:37:49;;;;;;;13.97;10.20;;;;;;;4.86;68.79;100084.81;4997002;28;20538;-81
2021/12/18 09:40:17;;;;;;;12.20;10.37;;;;;;;5.73;68.44;100211.81;5006433;28;20034;-82
2021/12/18 09:42:42;;;;;;;13.43;9.37;;;;;;;5.38;68.73;100153.75;5012924;28;20104;-81
2021/12/18 09:45:09;;;;;;;12.03;9.53;;;;;;;5.58;68.58;100175.63;5025142;28;20151;-82
2021/12/18 09:47:34;;;;;;;13.60;11.13;;;;;;;5.65;68.68;100184.59;5008102;28;20034;-81
2021/12/18 09:50:00;;;;;;;12.97;10.27;;;;;;;5.96;68.30;100209.06;5008665;28;20036;-82
2021/12/18 09:52:25;;;;;;;13.17;9.93;;;;;;;5.48;68.36;100130.22;4998402;28;20029;-81
2021/12/18 09:54:59;;;;;;;10.20;8.77;;;;;;;6.04;67.63;100215.31;5019383;28;20117;-81
2021/12/18 09:57:24;;;;;;;11.90;9.63;;;;;;;6.03;67.67;100204.97;5004461;28;20030;-82
2021/12/18 09:59:51;;;;;;;11.77;10.03;;;;;;;6.09;67.64;100206.22;5007180;28;20553;-81
2021/12/18 10:02:16;;;;;;;12.33;10.27;;;;;;;6.16;67.20;100208.19;5007341;28;20069;-81
2021/12/18 10:04:44;;;;;;;10.87;9.10;;;;;;;5.84;67.14;100136.69;5011313;28;20061;-81
2021/12/18 10:07:26;;;;;;;10.20;8.43;;;;;;;6.07;66.46;100160.97;5011753;28;20565;-81
2021/12/18 10:09:57;;;;;;;11.30;9.60;;;;;;;5.99;66.94;100144.13;5011124;28;20096;-81
2021/12/18 10:12:32;;;;;;;9.65;8.07;;;;;;;6.13;66.85;100155.19;5009796;28;20096;-83
2021/12/18 10:15:12;;;;;;;13.13;9.97;;;;;;;5.89;66.43;100119.63;5011679;28;20025;-80
2021/12/18 10:17:42;;;;;;;14.90;11.90;;;;;;;6.09;66.88;100153.78;5007971;28;20418;-81
2021/12/18 10:20:10;;;;;;;12.50;9.67;;;;;;;6.31;66.50;100174.53;5007396;28;20484;-83
2021/12/18 10:22:46;;;;;;;14.83;10.70;;;;;;;6.26;66.51;100169.69;5011279;28;20034;-81
2021/12/18 10:25:13;;;;;;;14.70;12.23;;;;;;;6.09;66.88;100170.34;5008596;28;20183;-77
2021/12/18 10:27:41;;;;;;;16.10;11.53;;;;;;;5.47;67.12;100084.88;5011458;28;20056;-76
2021/12/18 10:30:20;;;;;;;15.97;12.37;;;;;;;5.61;66.88;100102.00;5009046;28;20021;-77
2021/12/18 10:33:04;;;;;;;14.73;11.83;;;;;;;5.72;66.76;100128.94;5005474;28;20053;-77
2021/12/18 10:35:41;;;;;;;12.87;9.87;;;;;;;5.50;66.99;100099.47;5007086;28;20086;-77
2021/12/18 10:38:08;;;;;;;12.00;10.57;;;;;;;6.12;66.83;100167.47;5001408;28;20084;-77
2021/12/18 10:40:45;;;;;;;10.83;9.23;;;;;;;5.95;65.33;100124.38;5007775;28;20034;-77
2021/12/18 10:43:11;;;;;;;8.97;7.80;;;;;;;5.93;65.36;100100.06;5004834;28;20034;-76
2021/12/18 10:45:37;;;;;;;9.20;7.50;;;;;;;6.05;64.85;100116.53;5004379;28;20100;-78
2021/12/18 10:48:14;;;;;;;7.47;5.88;;;;;;;6.19;61.82;100165.13;5008567;28;20109;-78
2021/12/18 10:50:50;;;;;;;7.50;6.70;;;;;;;6.22;62.88;100173.56;5024328;28;20100;-76
2021/12/18 10:53:21;;;;;;;8.73;6.60;;;;;;;6.25;63.05;100181.16;5022040;28;20107;-77
2021/12/18 10:55:55;;;;;;;10.23;8.17;;;;;;;5.71;62.95;100093.22;5007688;28;20032;-77
2021/12/18 10:58:28;;;;;;;9.67;7.83;;;;;;;6.13;62.82;100153.38;5010876;28;20048;-77
2021/12/18 11:00:58;;;;;;;10.57;8.67;;;;;;;5.88;63.31;100109.25;5011119;28;20025;-76
2021/12/18 11:03:28;;;;;;;10.73;7.80;;;;;;;6.24;62.92;100163.75;5003115;28;20041;-77
2021/12/18 11:06:22;;;;;;;10.37;8.17;;;;;;;6.26;61.71;100180.19;5005913;28;20040;-77
2021/12/18 11:08:55;;;;;;;11.17;8.10;;;;;;;6.30;62.51;100167.63;5008045;28;20044;-77
2021/12/18 11:14:09;;;;;;;10.47;8.10;;;;;;;6.36;62.11;100169.72;5010763;28;20446;-77
2021/12/18 11:16:36;;;;;;;7.53;6.30;;;;;;;6.28;61.26;100177.44;4997316;28;20026;-77
2021/12/18 11:19:07;;;;;;;8.70;6.97;;;;;;;5.89;61.46;100108.28;5002649;28;20041;-76
2021/12/18 11:21:34;;;;;;;9.70;7.63;;;;;;;6.30;61.61;100171.09;5003727;28;20051;-76
2021/12/18 11:24:07;;;;;;;8.83;7.50;;;;;;;6.12;60.84;100146.47;4993444;28;20091;-77
2021/12/18 11:26:59;;;;;;;8.13;6.50;;;;;;;6.26;57.97;100174.94;5008103;28;20034;-77
2021/12/18 11:29:40;;;;;;;6.60;5.60;;;;;;;6.26;58.84;100169.69;4991438;28;20122;-77
2021/12/18 11:32:12;;;;;;;6.57;5.43;;;;;;;5.95;59.91;100120.94;5000526;28;20053;-77
2021/12/18 11:34:39;;;;;;;8.50;7.17;;;;;;;6.31;60.07;100175.38;5009938;28;20038;-77
2021/12/18 11:37:07;;;;;;;9.13;7.30;;;;;;;6.32;59.86;100182.28;4992615;28;20133;-77
2021/12/18 11:39:34;;;;;;;10.43;8.33;;;;;;;5.97;59.93;100119.00;5000836;28;20033;-77
2021/12/18 11:41:59;;;;;;;10.07;7.57;;;;;;;6.45;59.54;100184.63;4998292;28;20029;-77
2021/12/18 11:44:33;;;;;;;11.27;7.30;;;;;;;6.11;59.52;100125.66;5007462;28;20036;-77
2021/12/18 11:47:20;;;;;;;11.57;8.07;;;;;;;6.26;59.19;100127.75;4999663;28;20031;-77
2021/12/18 11:49:45;;;;;;;9.97;8.00;;;;;;;6.41;59.04;100146.53;4997029;28;20465;-76
2021/12/18 11:52:11;;;;;;;11.10;8.30;;;;;;;6.52;59.22;100161.31;5013345;28;20100;-76
2021/12/18 11:54:41;;;;;;;9.57;7.60;;;;;;;6.70;58.00;100188.56;5014447;28;20026;-77
2021/12/18 11:57:07;;;;;;;13.33;9.00;;;;;;;6.68;58.43;100186.03;5013323;28;20034;-76
2021/12/18 11:59:41;;;;;;;9.33;7.20;;;;;;;6.68;56.97;100187.84;5029850;28;20424;-76
2021/12/18 12:02:08;;;;;;;10.65;7.95;;;;;;;6.67;57.37;100194.88;5011346;28;20030;-77
2021/12/18 12:05:01;;;;;;;12.07;8.87;;;;;;;6.58;56.97;100192.25;5004578;28;20464;-76
2021/12/18 12:07:27;;;;;;;6.82;5.20;;;;;;;6.59;56.94;100193.91;4995351;28;20109;-77
2021/12/18 12:13:04;;;;;;;9.17;6.43;;;;;;;6.22;56.41;100128.16;5011570;28;20042;-77
2021/12/18 12:15:30;;;;;;;10.43;6.70;;;;;;;6.15;57.07;100101.66;5010431;28;20048;-77
2021/12/18 12:18:00;;;;;;;9.50;7.78;;;;;;;6.62;57.12;100188.38;5003035;28;20517;-77
2021/12/18 12:20:48;;;;;;;9.80;8.10;;;;;;;6.53;57.03;100189.19;5002715;28;20030;-77
2021/12/18 12:23:14;;;;;;;9.23;7.63;;;;;;;5.92;56.91;100111.50;5012201;28;20042;-77
2021/12/18 12:25:42;;;;;;;13.00;7.90;;;;;;;6.36;57.38;100199.41;5014173;28;20037;-77